createdAt,value
2022-09-10T00:02:15.991Z,82.94
2022-09-10T00:04:42.985Z,83.01
2022-09-10T00:07:09.998Z,82.73
2022-09-10T00:09:36.879Z,83.02
2022-09-10T00:12:04.138Z,82.67
2022-09-10T00:14:31.110Z,82.75
2022-09-10T00:16:58.020Z,83.08
2022-09-10T00:19:25.178Z,83.03
2022-09-10T00:21:52.255Z,83.09
2022-09-10T00:24:19.261Z,82.91
2022-09-10T00:26:46.582Z,82.88
2022-09-10T00:29:15.970Z,83.10
2022-09-10T00:31:43.608Z,82.75
2022-09-10T00:34:12.288Z,82.77
2022-09-10T00:36:41.219Z,82.78
2022-09-10T00:39:11.162Z,82.77
2022-09-10T00:41:40.851Z,82.96
2022-09-10T00:44:39.999Z,82.88
2022-09-10T00:47:29.421Z,83.05
2022-09-10T00:50:20.063Z,82.97
2022-09-10T00:52:47.642Z,82.89
2022-09-10T00:55:15.927Z,82.95
2022-09-10T00:57:43.465Z,82.84
2022-09-10T01:00:13.041Z,82.93
2022-09-10T01:02:41.843Z,82.89
2022-09-10T01:05:10.678Z,82.90
2022-09-10T01:07:38.258Z,83.05
2022-09-10T01:10:13.091Z,82.90
2022-09-10T01:13:01.908Z,82.82
2022-09-10T01:15:40.386Z,82.97
2022-09-10T01:18:46.889Z,83.06
2022-09-10T01:21:23.558Z,82.91
2022-09-10T01:23:58.199Z,83.03
2022-09-10T01:26:34.880Z,83.02
2022-09-10T01:29:39.150Z,83.27
2022-09-10T01:32:13.115Z,83.00
2022-09-10T01:34:58.750Z,83.10
2022-09-10T01:37:29.806Z,83.18
2022-09-10T01:39:58.199Z,83.08
2022-09-10T01:42:27.729Z,83.10
2022-09-10T01:44:57.993Z,83.05
2022-09-10T01:47:38.763Z,83.17
2022-09-10T01:50:30.177Z,83.30
2022-09-10T01:53:04.922Z,83.15
2022-09-10T01:55:41.911Z,83.16
2022-09-10T01:58:33.664Z,83.36
2022-09-10T02:01:28.924Z,83.27
2022-09-10T02:04:00.317Z,83.24
2022-09-10T02:06:29.857Z,83.35
2022-09-10T02:08:59.909Z,83.33
2022-09-10T02:11:26.982Z,83.32
2022-09-10T02:13:55.233Z,83.36
2022-09-10T02:16:35.374Z,83.60
2022-09-10T02:19:03.429Z,83.32
2022-09-10T02:21:32.240Z,83.51
2022-09-10T02:24:06.139Z,83.57
2022-09-10T02:26:35.032Z,83.69
2022-09-10T02:29:02.419Z,83.61
2022-09-10T02:31:30.090Z,83.62
2022-09-10T02:33:57.042Z,83.64
2022-09-10T02:36:26.899Z,83.52
2022-09-10T02:38:58.770Z,83.59
2022-09-10T02:41:28.277Z,83.69
2022-09-10T02:43:55.689Z,83.46
2022-09-10T02:46:22.739Z,83.83
2022-09-10T02:48:49.995Z,83.76
2022-09-10T02:51:16.947Z,83.68
2022-09-10T02:53:44.476Z,83.84
2022-09-10T02:56:13.735Z,83.89
2022-09-10T02:58:42.630Z,83.78
2022-09-10T03:01:15.649Z,83.75
2022-09-10T03:03:55.153Z,83.79
2022-09-10T03:06:23.371Z,83.90
2022-09-10T03:08:51.860Z,83.75
2022-09-10T03:11:18.939Z,83.64
2022-09-10T03:13:46.401Z,83.72
2022-09-10T03:16:14.215Z,83.80
2022-09-10T03:18:41.873Z,83.89
2022-09-10T03:21:20.262Z,83.83
2022-09-10T03:23:49.570Z,83.88
2022-09-10T03:26:22.913Z,83.97
2022-09-10T03:28:50.227Z,83.82
2022-09-10T03:31:20.028Z,83.92
2022-09-10T03:33:49.318Z,83.68
2022-09-10T03:36:18.176Z,83.86
2022-09-10T03:38:47.168Z,83.77
2022-09-10T03:41:14.469Z,83.89
2022-09-10T03:43:41.561Z,83.86
2022-09-10T03:46:12.180Z,84.04
2022-09-10T03:48:43.762Z,83.82
2022-09-10T03:51:11.549Z,83.90
2022-09-10T03:53:39.519Z,83.88
2022-09-10T03:56:08.692Z,83.99
2022-09-10T03:58:36.022Z,84.12
2022-09-10T04:01:04.490Z,84.09
2022-09-10T04:03:35.125Z,83.94
2022-09-10T04:06:02.162Z,84.05
2022-09-10T04:08:29.153Z,83.86
2022-09-10T04:11:01.929Z,83.93
2022-09-10T04:13:29.181Z,84.15
2022-09-10T04:15:56.399Z,84.14
2022-09-10T04:18:24.029Z,84.15
2022-09-10T04:20:51.378Z,84.11
2022-09-10T04:23:18.271Z,84.19
2022-09-10T04:25:46.707Z,84.19
2022-09-10T04:28:13.789Z,84.15
2022-09-10T04:30:40.900Z,84.10
2022-09-10T04:33:09.925Z,84.24
2022-09-10T04:35:36.924Z,84.15
2022-09-10T04:38:07.238Z,84.24
2022-09-10T04:40:38.488Z,84.21
2022-09-10T04:43:05.828Z,84.09
2022-09-10T04:45:37.216Z,84.07
2022-09-10T04:48:07.267Z,84.19
2022-09-10T04:50:35.921Z,84.06
2022-09-10T04:53:28.959Z,84.18
2022-09-10T04:55:57.885Z,84.28
2022-09-10T04:58:24.821Z,84.32
2022-09-10T05:00:52.207Z,84.16
2022-09-10T05:03:20.222Z,84.11
2022-09-10T05:05:48.122Z,84.14
2022-09-10T05:08:15.338Z,84.30
2022-09-10T05:10:49.401Z,84.12
2022-09-10T05:13:16.934Z,84.05
2022-09-10T05:15:46.154Z,84.21
2022-09-10T05:18:16.794Z,84.01
2022-09-10T05:20:47.436Z,84.17
2022-09-10T05:23:14.510Z,84.24
2022-09-10T05:25:44.397Z,84.28
2022-09-10T05:28:11.561Z,84.29
2022-09-10T05:30:38.658Z,84.22
2022-09-10T05:33:05.989Z,84.08
2022-09-10T05:35:34.768Z,84.34
2022-09-10T05:38:02.123Z,84.05
2022-09-10T05:40:32.497Z,84.23
2022-09-10T05:43:00.301Z,84.09
2022-09-10T05:45:27.555Z,84.07
2022-09-10T05:47:57.430Z,84.12
2022-09-10T05:50:24.695Z,84.14
2022-09-10T05:52:53.225Z,84.23
2022-09-10T05:55:20.984Z,84.27
2022-09-10T05:57:49.347Z,84.07
2022-09-10T06:00:19.439Z,84.11
2022-09-10T06:02:57.487Z,84.00
2022-09-10T06:05:29.299Z,84.14
2022-09-10T06:07:57.109Z,84.08
2022-09-10T06:10:24.079Z,84.23
2022-09-10T06:12:52.836Z,84.24
2022-09-10T06:15:21.308Z,83.98
2022-09-10T06:17:56.650Z,84.13
2022-09-10T06:20:24.620Z,84.11
2022-09-10T06:22:52.396Z,84.17
2022-09-10T06:25:19.351Z,84.10
2022-09-10T06:27:47.743Z,84.22
2022-09-10T06:30:16.750Z,84.23
2022-09-10T06:32:47.337Z,83.88
2022-09-10T06:35:14.975Z,84.05
2022-09-10T06:37:43.376Z,84.22
2022-09-10T06:40:12.206Z,84.17
2022-09-10T06:42:41.059Z,83.89
2022-09-10T06:45:13.945Z,83.91
2022-09-10T06:48:37.756Z,83.62
2022-09-10T06:50:55.828Z,83.89
2022-09-10T06:53:28.867Z,83.93
2022-09-10T06:55:56.589Z,83.64
2022-09-10T06:58:24.980Z,83.89
2022-09-10T07:00:52.836Z,83.58
2022-09-10T07:03:22.267Z,83.67
2022-09-10T07:05:50.816Z,83.78
2022-09-10T07:08:18.277Z,83.89
2022-09-10T07:10:50.501Z,83.71
2022-09-10T07:13:17.566Z,83.49
2022-09-10T07:15:46.695Z,83.79
2022-09-10T07:18:15.763Z,83.57
2022-09-10T07:20:45.019Z,83.37
2022-09-10T07:23:14.206Z,83.78
2022-09-10T07:25:42.106Z,83.54
2022-09-10T07:28:18.208Z,83.40
2022-09-10T07:30:47.672Z,83.34
2022-09-10T07:33:16.548Z,83.25
2022-09-10T07:35:45.116Z,83.42
2022-09-10T07:38:17.526Z,83.39
2022-09-10T07:40:48.451Z,83.20
2022-09-10T07:43:16.706Z,82.91
2022-09-10T07:45:44.178Z,83.29
2022-09-10T07:48:12.045Z,83.11
2022-09-10T07:50:39.899Z,83.30
2022-09-10T07:53:07.411Z,83.16
2022-09-10T07:55:35.778Z,83.10
2022-09-10T07:58:03.497Z,82.82
2022-09-10T08:00:31.930Z,82.97
2022-09-10T08:03:05.516Z,82.76
2022-09-10T08:05:33.503Z,82.91
2022-09-10T08:08:01.799Z,82.52
2022-09-10T08:10:29.749Z,82.71
2022-09-10T08:12:58.130Z,82.70
2022-09-10T08:15:25.440Z,82.41
2022-09-10T08:17:53.305Z,82.41
2022-09-10T08:20:25.323Z,82.22
2022-09-10T08:22:53.339Z,82.39
2022-09-10T08:25:21.685Z,82.14
2022-09-10T08:27:49.104Z,82.37
2022-09-10T08:30:16.475Z,82.11
2022-09-10T08:32:43.927Z,82.17
2022-09-10T08:35:14.743Z,82.03
2022-09-10T08:37:42.210Z,82.25
2022-09-10T08:40:12.495Z,82.08
2022-09-10T08:42:49.434Z,81.90
2022-09-10T08:45:32.758Z,81.92
2022-09-10T08:48:13.286Z,81.71
2022-09-10T08:50:52.974Z,81.95
2022-09-10T08:53:36.730Z,81.55
2022-09-10T08:56:11.425Z,81.71
2022-09-10T08:58:42.822Z,81.68
2022-09-10T09:01:15.724Z,81.64
2022-09-10T09:03:47.659Z,81.36
2022-09-10T09:06:41.278Z,81.37
2022-09-10T09:09:14.838Z,81.33
2022-09-10T09:11:49.224Z,81.31
2022-09-10T09:14:53.629Z,81.11
2022-09-10T09:17:42.860Z,81.15
2022-09-10T09:20:20.250Z,81.02
2022-09-10T09:22:53.585Z,80.89
2022-09-10T09:26:04.201Z,81.07
2022-09-10T09:28:47.344Z,80.79
2022-09-10T09:31:23.700Z,81.03
2022-09-10T09:33:56.554Z,80.78
2022-09-10T09:36:32.788Z,80.71
2022-09-10T09:39:03.060Z,80.83
2022-09-10T09:41:39.400Z,80.66
2022-09-10T09:44:19.657Z,80.88
2022-09-10T09:46:46.742Z,80.79
2022-09-10T09:49:17.641Z,80.80
2022-09-10T09:51:47.501Z,80.74
2022-09-10T09:54:51.417Z,80.71
2022-09-10T09:57:15.614Z,80.37
2022-09-10T09:59:42.598Z,80.16
2022-09-10T10:02:15.640Z,80.67
2022-09-10T10:05:13.677Z,80.39
2022-09-10T10:07:40.610Z,80.66
2022-09-10T10:10:12.302Z,80.42
2022-09-10T10:12:42.596Z,80.65
2022-09-10T10:15:36.781Z,80.57
2022-09-10T10:18:31.982Z,80.37
2022-09-10T10:21:37.024Z,80.50
2022-09-10T10:24:04.272Z,80.42
2022-09-10T10:26:33.144Z,80.48
2022-09-10T10:29:06.401Z,80.85
2022-09-10T10:31:37.234Z,80.86
2022-09-10T10:34:10.476Z,81.20
2022-09-10T10:37:02.033Z,81.00
2022-09-10T10:39:38.742Z,81.28
2022-09-10T10:42:34.363Z,81.13
2022-09-10T10:45:28.997Z,81.15
2022-09-10T10:48:10.132Z,81.26
2022-09-10T10:50:44.751Z,81.21
2022-09-10T10:53:48.510Z,80.81
2022-09-10T10:56:30.293Z,81.01
2022-09-10T10:59:23.761Z,80.95
2022-09-10T11:01:56.466Z,80.50
2022-09-10T11:04:29.978Z,80.64
2022-09-10T11:07:04.692Z,80.69
2022-09-10T11:09:44.351Z,80.50
2022-09-10T11:12:20.352Z,80.38
2022-09-10T11:14:53.661Z,80.25
2022-09-10T11:17:46.576Z,80.33
2022-09-10T11:20:34.549Z,80.37
2022-09-10T11:23:08.091Z,80.43
2022-09-10T11:25:53.255Z,80.31
2022-09-10T11:28:25.952Z,80.53
2022-09-10T11:31:02.964Z,80.33
2022-09-10T11:33:37.593Z,80.51
2022-09-10T11:36:43.381Z,80.37
2022-09-10T11:39:42.125Z,80.31
2022-09-10T11:42:46.101Z,80.28
2022-09-10T11:45:39.810Z,80.47
2022-09-10T11:48:40.058Z,80.37
2022-09-10T11:51:26.915Z,80.35
2022-09-10T11:53:54.914Z,80.29
2022-09-10T11:56:46.652Z,80.10
2022-09-10T11:59:25.552Z,80.11
2022-09-10T12:02:14.429Z,80.06
2022-09-10T12:05:06.351Z,80.16
2022-09-10T12:07:56.867Z,79.99
2022-09-10T12:10:55.627Z,80.22
2022-09-10T12:13:22.794Z,80.38
2022-09-10T12:16:00.010Z,80.16
2022-09-10T12:18:31.224Z,80.09
2022-09-10T12:20:59.892Z,80.04
2022-09-10T12:23:33.534Z,79.99
2022-09-10T12:26:05.715Z,80.41
2022-09-10T12:28:51.255Z,80.36
2022-09-10T12:31:20.524Z,80.10
2022-09-10T12:33:47.578Z,79.93
2022-09-10T12:36:35.653Z,80.06
2022-09-10T12:39:20.713Z,79.93
2022-09-10T12:41:47.553Z,79.71
2022-09-10T12:44:36.455Z,79.54
2022-09-10T12:47:15.996Z,79.40
2022-09-10T12:49:57.335Z,79.13
2022-09-10T12:52:42.955Z,79.17
2022-09-10T12:55:23.070Z,79.20
2022-09-10T12:58:05.454Z,79.01
2022-09-10T13:01:09.585Z,78.93
2022-09-10T13:03:37.776Z,78.83
2022-09-10T13:06:07.239Z,78.82
2022-09-10T13:08:45.453Z,78.64
2022-09-10T13:11:23.274Z,78.66
2022-09-10T13:14:12.292Z,78.55
2022-09-10T13:16:40.971Z,78.54
2022-09-10T13:19:13.836Z,78.54
2022-09-10T13:21:40.803Z,78.65
2022-09-10T13:24:34.499Z,78.65
2022-09-10T13:27:16.812Z,78.72
2022-09-10T13:29:46.134Z,78.65
2022-09-10T13:32:34.888Z,78.65
2022-09-10T13:35:04.354Z,78.68
2022-09-10T13:37:50.483Z,78.75
2022-09-10T13:40:39.382Z,78.91
2022-09-10T13:43:31.272Z,78.83
2022-09-10T13:46:15.051Z,78.69
2022-09-10T13:48:46.756Z,78.72
2022-09-10T13:51:31.038Z,78.97
2022-09-10T13:54:04.114Z,78.75
2022-09-10T13:56:32.407Z,78.82
2022-09-10T13:59:03.585Z,78.84
2022-09-10T14:01:50.661Z,79.07
2022-09-10T14:04:39.098Z,78.93
2022-09-10T14:07:20.258Z,78.70
2022-09-10T14:09:56.866Z,78.92
2022-09-10T14:12:28.208Z,79.28
2022-09-10T14:14:59.368Z,78.99
2022-09-10T14:17:31.572Z,79.16
2022-09-10T14:20:06.044Z,78.99
2022-09-10T14:22:33.428Z,79.00
2022-09-10T14:25:02.725Z,79.17
2022-09-10T14:27:32.588Z,79.10
2022-09-10T14:30:21.224Z,79.06
2022-09-10T14:32:48.453Z,79.28
2022-09-10T14:35:44.292Z,79.24
2022-09-10T14:38:31.170Z,79.34
2022-09-10T14:41:11.082Z,79.36
2022-09-10T14:43:40.698Z,79.24
2022-09-10T14:46:10.306Z,79.52
2022-09-10T14:48:41.210Z,79.36
2022-09-10T14:51:12.386Z,79.62
2022-09-10T14:53:40.953Z,79.32
2022-09-10T14:56:39.748Z,79.45
2022-09-10T14:59:15.367Z,79.44
2022-09-10T15:01:48.241Z,79.36
2022-09-10T15:04:18.480Z,79.63
2022-09-10T15:06:46.153Z,79.68
2022-09-10T15:09:13.991Z,79.69
2022-09-10T15:11:50.892Z,79.78
2022-09-10T15:14:18.683Z,79.79
2022-09-10T15:16:46.982Z,79.40
2022-09-10T15:19:14.463Z,79.60
2022-09-10T15:21:41.419Z,79.60
2022-09-10T15:24:15.914Z,79.64
2022-09-10T15:26:43.364Z,79.81
2022-09-10T15:29:11.132Z,79.63
2022-09-10T15:31:38.872Z,79.65
2022-09-10T15:34:07.648Z,79.67
2022-09-10T15:36:37.083Z,79.99
2022-09-10T15:39:05.485Z,79.73
2022-09-10T15:41:32.385Z,79.96
2022-09-10T15:43:59.499Z,79.85
2022-09-10T15:46:26.505Z,79.79
2022-09-10T15:48:55.631Z,79.98
2022-09-10T15:51:24.034Z,79.74
2022-09-10T15:53:52.706Z,79.75
2022-09-10T15:56:21.308Z,79.85
2022-09-10T15:58:55.157Z,79.93
2022-09-10T16:01:25.319Z,80.02
2022-09-10T16:03:55.962Z,80.01
2022-09-10T16:06:25.813Z,80.08
2022-09-10T16:08:57.500Z,80.18
2022-09-10T16:11:25.462Z,80.22
2022-09-10T16:13:52.815Z,80.02
2022-09-10T16:16:22.506Z,80.11
2022-09-10T16:18:51.723Z,80.05
2022-09-10T16:21:22.476Z,79.98
2022-09-10T16:23:51.894Z,80.15
2022-09-10T16:26:24.336Z,80.04
2022-09-10T16:28:52.807Z,80.29
2022-09-10T16:31:23.052Z,80.11
2022-09-10T16:33:54.663Z,79.97
2022-09-10T16:36:22.357Z,80.00
2022-09-10T16:38:53.569Z,80.18
2022-09-10T16:41:21.039Z,79.93
2022-09-10T16:43:47.959Z,80.08
2022-09-10T16:46:15.039Z,80.26
2022-09-10T16:48:43.026Z,80.07
2022-09-10T16:51:15.865Z,80.28
2022-09-10T16:53:44.402Z,80.19
2022-09-10T16:56:16.449Z,80.35
2022-09-10T16:58:47.717Z,80.43
2022-09-10T17:01:15.881Z,80.14
2022-09-10T17:03:50.757Z,80.61
2022-09-10T17:06:24.499Z,80.24
2022-09-10T17:08:56.228Z,80.34
2022-09-10T17:11:26.114Z,80.51
2022-09-10T17:13:54.303Z,80.58
2022-09-10T17:16:21.274Z,80.52
2022-09-10T17:18:53.051Z,80.47
2022-09-10T17:21:19.955Z,80.60
2022-09-10T17:23:46.955Z,80.93
2022-09-10T17:26:13.882Z,80.66
2022-09-10T17:28:41.453Z,81.06
2022-09-10T17:31:08.691Z,80.99
2022-09-10T17:33:35.675Z,80.88
2022-09-10T17:36:04.149Z,80.86
2022-09-10T17:38:33.836Z,81.24
2022-09-10T17:41:02.796Z,81.25
2022-09-10T17:43:34.210Z,81.05
2022-09-10T17:46:09.462Z,81.06
2022-09-10T17:48:38.018Z,81.25
2022-09-10T17:51:06.269Z,81.01
2022-09-10T17:53:34.149Z,81.03
2022-09-10T17:56:05.534Z,81.01
2022-09-10T17:58:33.382Z,80.93
2022-09-10T18:01:01.944Z,81.41
2022-09-10T18:03:29.301Z,81.16
2022-09-10T18:05:57.139Z,81.25
2022-09-10T18:08:24.208Z,81.00
2022-09-10T18:11:05.777Z,81.02
2022-09-10T18:13:36.445Z,81.02
2022-09-10T18:16:11.742Z,81.06
2022-09-10T18:18:39.513Z,80.96
2022-09-10T18:21:27.284Z,81.23
2022-09-10T18:24:00.548Z,81.29
2022-09-10T18:26:32.566Z,81.52
2022-09-10T18:29:00.487Z,81.36
2022-09-10T18:31:32.583Z,81.56
2022-09-10T18:34:00.921Z,81.86
2022-09-10T18:36:32.871Z,81.81
2022-09-10T18:39:06.432Z,81.95
2022-09-10T18:41:38.595Z,82.02
2022-09-10T18:44:08.922Z,82.34
2022-09-10T18:46:36.506Z,82.26
2022-09-10T18:49:05.445Z,82.35
2022-09-10T18:51:32.735Z,82.34
2022-09-10T18:54:01.429Z,82.42
2022-09-10T18:56:30.553Z,82.78
2022-09-10T18:59:01.350Z,82.74
2022-09-10T19:01:29.807Z,83.02
2022-09-10T19:03:59.726Z,83.07
2022-09-10T19:06:29.205Z,83.32
2022-09-10T19:08:59.878Z,83.19
2022-09-10T19:11:33.092Z,83.39
2022-09-10T19:14:01.877Z,83.25
2022-09-10T19:16:30.423Z,83.39
2022-09-10T19:19:02.939Z,83.39
2022-09-10T19:21:32.870Z,83.70
2022-09-10T19:24:00.955Z,83.76
2022-09-10T19:26:30.844Z,83.84
2022-09-10T19:28:59.364Z,83.61
2022-09-10T19:31:28.316Z,84.03
2022-09-10T19:34:06.619Z,83.72
2022-09-10T19:36:35.734Z,84.17
2022-09-10T19:39:09.070Z,83.90
2022-09-10T19:41:39.785Z,84.32
2022-09-10T19:44:08.934Z,84.20
2022-09-10T19:46:37.428Z,84.23
2022-09-10T19:49:07.014Z,84.10
2022-09-10T19:51:36.995Z,84.35
2022-09-10T19:54:04.654Z,84.17
2022-09-10T19:56:35.016Z,84.14
2022-09-10T19:59:08.840Z,84.57
2022-09-10T20:01:43.776Z,84.16
2022-09-10T20:04:11.877Z,84.67
2022-09-10T20:06:39.484Z,84.49
2022-09-10T20:09:07.630Z,84.62
2022-09-10T20:11:35.368Z,84.69
2022-09-10T20:14:16.142Z,84.75
2022-09-10T20:16:45.295Z,84.40
2022-09-10T20:19:14.561Z,84.75
2022-09-10T20:21:42.342Z,84.52
2022-09-10T20:24:09.879Z,84.32
2022-09-10T20:26:38.341Z,84.31
2022-09-10T20:29:12.475Z,84.69
2022-09-10T20:31:41.388Z,84.72
2022-09-10T20:34:14.281Z,84.61
2022-09-10T20:36:45.225Z,84.31
2022-09-10T20:39:17.227Z,84.69
2022-09-10T20:41:45.259Z,84.52
2022-09-10T20:44:14.050Z,84.45
2022-09-10T20:46:41.965Z,84.40
2022-09-10T20:49:11.095Z,84.68
2022-09-10T20:51:40.514Z,84.51
2022-09-10T20:54:10.903Z,84.50
2022-09-10T20:56:38.158Z,84.66
2022-09-10T20:59:05.333Z,84.69
2022-09-10T21:01:33.162Z,84.63
2022-09-10T21:04:01.834Z,84.24
2022-09-10T21:06:31.454Z,84.57
2022-09-10T21:09:00.736Z,84.38
2022-09-10T21:11:30.827Z,84.41
2022-09-10T21:14:00.738Z,84.30
2022-09-10T21:16:29.777Z,84.35
2022-09-10T21:19:01.441Z,84.43
2022-09-10T21:21:30.355Z,84.34
2022-09-10T21:23:59.887Z,84.68
2022-09-10T21:26:32.379Z,84.35
2022-09-10T21:29:02.336Z,84.28
2022-09-10T21:31:30.363Z,84.53
2022-09-10T21:34:02.788Z,84.41
2022-09-10T21:36:32.368Z,84.31
2022-09-10T21:39:01.570Z,84.34
2022-09-10T21:41:39.969Z,84.44
2022-09-10T21:44:20.079Z,84.62
2022-09-10T21:46:47.567Z,84.58
2022-09-10T21:49:14.789Z,84.83
2022-09-10T21:51:42.487Z,84.64
2022-09-10T21:54:18.779Z,84.53
2022-09-10T21:56:46.083Z,84.81
2022-09-10T21:59:14.597Z,84.70
2022-09-10T22:01:43.995Z,84.54
2022-09-10T22:04:11.528Z,84.56
2022-09-10T22:06:38.979Z,84.72
2022-09-10T22:09:08.290Z,84.58
2022-09-10T22:11:45.836Z,84.47
2022-09-10T22:14:18.294Z,84.55
2022-09-10T22:16:45.883Z,84.35
2022-09-10T22:19:15.646Z,84.69
2022-09-10T22:21:42.630Z,84.71
2022-09-10T22:24:11.404Z,84.40
2022-09-10T22:26:43.355Z,84.43
2022-09-10T22:29:10.925Z,84.62
2022-09-10T22:31:38.200Z,84.35
2022-09-10T22:34:11.387Z,84.65
2022-09-10T22:36:39.702Z,84.72
2022-09-10T22:39:08.957Z,84.77
2022-09-10T22:41:36.573Z,84.71
2022-09-10T22:44:03.613Z,84.53
2022-09-10T22:46:31.158Z,84.76
2022-09-10T22:48:58.246Z,84.77
2022-09-10T22:51:27.907Z,84.78
2022-09-10T22:53:55.790Z,84.81
2022-09-10T22:56:24.816Z,84.63
2022-09-10T22:58:52.803Z,84.75
2022-09-10T23:01:22.762Z,84.80
2022-09-10T23:03:50.368Z,84.78
2022-09-10T23:06:19.846Z,84.76
2022-09-10T23:08:50.356Z,84.80
2022-09-10T23:11:27.236Z,85.04
2022-09-10T23:13:59.663Z,84.76
2022-09-10T23:16:29.094Z,84.96
2022-09-10T23:18:57.637Z,84.84
2022-09-10T23:21:26.804Z,84.84
2022-09-10T23:23:56.447Z,84.66
2022-09-10T23:26:24.385Z,84.72
2022-09-10T23:28:51.770Z,84.85
2022-09-10T23:31:20.923Z,84.75
2022-09-10T23:33:54.517Z,84.85
2022-09-10T23:36:21.966Z,84.95
2022-09-10T23:38:49.087Z,84.68
2022-09-10T23:41:16.577Z,84.89
2022-09-10T23:43:44.574Z,84.87
2022-09-10T23:46:12.493Z,84.89
2022-09-10T23:48:40.069Z,84.84
2022-09-10T23:51:07.137Z,84.80
2022-09-10T23:53:34.138Z,84.74
2022-09-10T23:56:02.949Z,84.60
2022-09-10T23:58:30.116Z,84.87
